createdAt,value
2023-02-17T00:01:19.061Z,22.50
2023-02-17T00:03:52.958Z,22.30
2023-02-17T00:06:28.543Z,22.10
2023-02-17T00:09:02.373Z,23.50
2023-02-17T00:11:35.629Z,22.90
2023-02-17T00:14:08.892Z,22.90
2023-02-17T00:16:41.919Z,23.60
2023-02-17T00:19:25.552Z,23.30
2023-02-17T00:22:01.184Z,21.20
2023-02-17T00:24:35.979Z,23.40
2023-02-17T00:27:09.282Z,23.20
2023-02-17T00:29:42.361Z,22.10
2023-02-17T00:32:15.424Z,23.50
2023-02-17T00:34:48.793Z,23.40
2023-02-17T00:37:21.734Z,20.70
2023-02-17T00:39:54.780Z,22.00
2023-02-17T00:42:27.930Z,20.80
2023-02-17T00:45:07.543Z,22.10
2023-02-17T00:47:40.244Z,22.20
2023-02-17T00:50:15.853Z,22.00
2023-02-17T00:52:49.197Z,23.40
2023-02-17T00:55:22.122Z,22.40
2023-02-17T00:57:55.484Z,20.20
2023-02-17T01:00:28.565Z,22.90
2023-02-17T01:03:01.720Z,22.80
2023-02-17T01:05:35.023Z,21.50
2023-02-17T01:08:08.168Z,20.70
2023-02-17T01:10:43.031Z,21.20
2023-02-17T01:13:16.813Z,22.80
2023-02-17T01:15:52.758Z,22.70
2023-02-17T01:18:27.536Z,22.00
2023-02-17T01:21:00.592Z,22.20
2023-02-17T01:23:33.766Z,21.30
2023-02-17T01:26:07.088Z,22.10
2023-02-17T01:28:40.217Z,22.70
2023-02-17T01:31:14.748Z,22.40
2023-02-17T01:33:48.300Z,21.30
2023-02-17T01:36:22.115Z,22.50
2023-02-17T01:38:55.669Z,21.40
2023-02-17T01:41:29.559Z,22.10
2023-02-17T01:44:21.168Z,23.50
2023-02-17T01:46:56.685Z,23.10
2023-02-17T01:49:33.356Z,22.40
2023-02-17T01:52:06.273Z,23.50
2023-02-17T01:54:53.564Z,21.90
2023-02-17T01:57:29.653Z,23.30
2023-02-17T02:00:03.049Z,22.80
2023-02-17T02:02:51.394Z,22.30
2023-02-17T02:05:25.413Z,31.50
2023-02-17T02:07:59.129Z,33.50
2023-02-17T02:10:32.212Z,32.60
2023-02-17T02:13:06.001Z,34.10
2023-02-17T02:15:51.726Z,39.10
2023-02-17T02:18:50.206Z,39.80
2023-02-17T02:21:56.388Z,35.00
2023-02-17T02:24:54.276Z,35.00
2023-02-17T02:27:44.638Z,31.30
2023-02-17T02:30:41.916Z,33.30
2023-02-17T02:33:40.574Z,38.50
2023-02-17T02:36:28.498Z,39.50
2023-02-17T02:39:03.368Z,39.20
2023-02-17T02:41:45.772Z,37.00
2023-02-17T02:47:05.235Z,32.60
2023-02-17T02:49:40.048Z,33.40
2023-02-17T02:52:34.761Z,32.60
2023-02-17T02:55:31.230Z,33.20
2023-02-17T02:58:13.096Z,30.90
2023-02-17T03:01:17.802Z,31.30
2023-02-17T03:04:04.552Z,31.60
2023-02-17T03:07:21.658Z,30.10
2023-02-17T03:09:58.127Z,30.50
2023-02-17T03:12:32.176Z,31.90
2023-02-17T03:15:24.657Z,29.20
2023-02-17T03:18:04.023Z,29.10
2023-02-17T03:20:46.795Z,28.60
2023-02-17T03:23:20.830Z,29.30
2023-02-17T03:25:54.629Z,29.80
2023-02-17T03:28:28.662Z,29.00
2023-02-17T03:31:04.258Z,29.10
2023-02-17T03:33:37.536Z,29.30
2023-02-17T03:36:11.336Z,29.50
2023-02-17T03:38:44.657Z,29.10
2023-02-17T03:41:18.010Z,28.20
2023-02-17T03:43:51.274Z,28.80
2023-02-17T03:46:24.457Z,30.00
2023-02-17T03:48:57.927Z,28.70
2023-02-17T03:51:30.931Z,28.00
2023-02-17T03:54:04.391Z,29.50
2023-02-17T03:56:37.448Z,28.80
2023-02-17T03:59:10.649Z,27.90
2023-02-17T04:01:43.998Z,28.40
2023-02-17T04:04:17.423Z,28.70
2023-02-17T04:06:51.853Z,55.40
2023-02-17T04:09:25.327Z,68.60
2023-02-17T04:11:58.770Z,48.00
2023-02-17T04:14:32.511Z,43.00
2023-02-17T04:17:05.896Z,43.00
2023-02-17T04:19:39.490Z,41.30
2023-02-17T04:22:12.814Z,43.10
2023-02-17T04:24:47.057Z,49.60
2023-02-17T04:27:20.386Z,44.00
2023-02-17T04:29:55.026Z,31.40
2023-02-17T04:32:28.336Z,31.40
2023-02-17T04:35:01.683Z,31.70
2023-02-17T04:37:34.828Z,31.30
2023-02-17T04:40:11.069Z,30.00
2023-02-17T04:42:44.104Z,30.40
2023-02-17T04:45:17.340Z,29.20
2023-02-17T04:47:50.685Z,28.60
2023-02-17T04:50:24.574Z,28.90
2023-02-17T04:52:57.683Z,28.70
2023-02-17T04:55:31.184Z,31.20
2023-02-17T04:58:04.866Z,31.40
2023-02-17T05:00:39.117Z,31.20
2023-02-17T05:03:12.385Z,30.50
2023-02-17T05:05:45.768Z,30.70
2023-02-17T05:08:18.809Z,31.30
2023-02-17T05:10:54.238Z,31.10
2023-02-17T05:13:28.228Z,32.00
2023-02-17T05:16:02.058Z,32.10
2023-02-17T05:18:35.149Z,31.20
2023-02-17T05:21:08.244Z,29.50
2023-02-17T05:23:41.606Z,31.10
2023-02-17T05:26:15.373Z,32.00
2023-02-17T05:28:48.576Z,31.20
2023-02-17T05:31:22.285Z,29.20
2023-02-17T05:33:56.993Z,27.70
2023-02-17T05:36:30.454Z,28.60
2023-02-17T05:39:03.120Z,32.70
2023-02-17T05:41:36.079Z,33.10
2023-02-17T05:44:09.353Z,32.70
2023-02-17T05:46:42.249Z,32.60
2023-02-17T05:49:15.391Z,31.70
2023-02-17T05:51:48.520Z,34.00
2023-02-17T05:54:22.054Z,47.80
2023-02-17T05:56:55.490Z,47.90
2023-02-17T05:59:28.619Z,69.70
2023-02-17T06:02:01.594Z,82.70
2023-02-17T06:04:35.461Z,68.70
2023-02-17T06:07:08.950Z,48.20
2023-02-17T06:09:42.445Z,39.50
2023-02-17T06:12:15.521Z,37.80
2023-02-17T06:14:48.347Z,38.10
2023-02-17T06:17:21.590Z,38.00
2023-02-17T06:19:55.571Z,35.80
2023-02-17T06:22:28.883Z,33.40
2023-02-17T06:25:02.106Z,37.20
2023-02-17T06:27:36.582Z,40.10
2023-02-17T06:30:10.833Z,40.70
2023-02-17T06:32:44.713Z,37.70
2023-02-17T06:35:18.494Z,33.70
2023-02-17T06:37:52.170Z,34.40
2023-02-17T06:40:27.513Z,38.40
2023-02-17T06:43:01.809Z,40.80
2023-02-17T06:45:35.088Z,45.30
2023-02-17T06:48:08.968Z,46.70
2023-02-17T06:50:42.663Z,47.70
2023-02-17T06:53:16.326Z,45.90
2023-02-17T06:55:54.384Z,45.10
2023-02-17T06:58:28.189Z,45.30
2023-02-17T07:01:01.248Z,42.80
2023-02-17T07:03:35.368Z,37.30
2023-02-17T07:06:10.042Z,35.80
2023-02-17T07:08:43.667Z,32.90
2023-02-17T07:11:17.687Z,33.90
2023-02-17T07:13:51.926Z,33.50
2023-02-17T07:16:25.456Z,34.80
2023-02-17T07:18:59.063Z,36.00
2023-02-17T07:21:32.291Z,36.70
2023-02-17T07:24:07.234Z,39.40
2023-02-17T07:26:41.408Z,44.00
2023-02-17T07:29:15.404Z,41.80
2023-02-17T07:31:49.025Z,38.30
2023-02-17T07:34:24.542Z,35.30
2023-02-17T07:36:58.131Z,30.80
2023-02-17T07:39:31.980Z,24.40
2023-02-17T07:42:06.689Z,24.70
2023-02-17T07:44:40.742Z,23.00
2023-02-17T07:47:14.288Z,22.10
2023-02-17T07:49:48.047Z,21.30
2023-02-17T07:52:22.038Z,22.40
2023-02-17T07:54:55.807Z,24.90
2023-02-17T07:57:29.263Z,23.50
2023-02-17T08:00:03.179Z,23.10
2023-02-17T08:02:47.319Z,25.70
2023-02-17T08:05:21.021Z,26.30
2023-02-17T08:08:18.145Z,25.70
2023-02-17T08:11:10.320Z,25.50
2023-02-17T08:13:43.759Z,25.90
2023-02-17T08:16:17.489Z,26.10
2023-02-17T08:18:50.665Z,23.10
2023-02-17T08:21:23.772Z,23.70
2023-02-17T08:23:57.168Z,28.40
2023-02-17T08:26:30.694Z,23.10
2023-02-17T08:29:03.743Z,26.60
2023-02-17T08:31:39.200Z,26.60
2023-02-17T08:34:14.175Z,27.50
2023-02-17T08:36:47.275Z,32.60
2023-02-17T08:39:20.998Z,33.30
2023-02-17T08:41:54.820Z,32.20
2023-02-17T08:44:28.285Z,30.10
2023-02-17T08:47:01.377Z,28.70
2023-02-17T08:49:35.364Z,28.10
2023-02-17T08:52:09.103Z,28.60
2023-02-17T08:54:42.872Z,27.30
2023-02-17T08:57:20.365Z,26.90
2023-02-17T08:59:54.402Z,23.50
2023-02-17T09:02:28.629Z,25.90
2023-02-17T09:05:03.674Z,25.70
2023-02-17T09:07:38.417Z,25.00
2023-02-17T09:10:14.929Z,23.20
2023-02-17T09:12:48.723Z,23.00
2023-02-17T09:15:22.566Z,22.20
2023-02-17T09:17:56.557Z,21.20
2023-02-17T09:20:29.988Z,22.10
2023-02-17T09:23:03.368Z,24.20
2023-02-17T09:25:38.300Z,21.70
2023-02-17T09:28:12.186Z,21.70
2023-02-17T09:30:46.576Z,18.50
2023-02-17T09:33:19.905Z,20.90
2023-02-17T09:35:54.471Z,20.80
2023-02-17T09:38:27.564Z,19.40
2023-02-17T09:41:11.877Z,20.40
2023-02-17T09:43:46.173Z,19.00
2023-02-17T09:46:32.602Z,18.90
2023-02-17T09:49:19.961Z,18.90
2023-02-17T09:52:04.516Z,10.60
2023-02-17T09:54:56.818Z,17.70
2023-02-17T09:57:34.724Z,16.10
2023-02-17T10:00:23.605Z,14.30
2023-02-17T10:03:10.315Z,16.60
2023-02-17T10:05:57.405Z,18.10
2023-02-17T10:08:36.782Z,15.60
2023-02-17T10:11:37.717Z,16.80
2023-02-17T10:14:28.709Z,14.50
2023-02-17T10:17:18.754Z,13.70
2023-02-17T10:20:22.792Z,13.80
2023-02-17T10:23:17.585Z,12.10
2023-02-17T10:26:30.567Z,13.90
2023-02-17T10:29:09.405Z,13.40
2023-02-17T10:32:03.478Z,11.90
2023-02-17T10:34:48.561Z,10.70
2023-02-17T10:37:49.199Z,11.60
2023-02-17T10:40:26.502Z,9.60
2023-02-17T10:43:12.824Z,8.50
2023-02-17T10:45:50.574Z,11.10
2023-02-17T10:48:36.979Z,12.00
2023-02-17T10:51:14.052Z,11.70
2023-02-17T10:53:53.726Z,11.80
2023-02-17T10:56:42.212Z,12.10
2023-02-17T10:59:32.992Z,10.60
2023-02-17T11:02:20.322Z,12.40
2023-02-17T11:05:00.696Z,10.30
2023-02-17T11:07:42.420Z,9.40
2023-02-17T11:10:35.434Z,11.40
2023-02-17T11:13:43.632Z,10.30
2023-02-17T11:16:37.233Z,10.10
2023-02-17T11:19:35.739Z,12.40
2023-02-17T11:22:30.921Z,13.20
2023-02-17T11:25:24.881Z,13.70
2023-02-17T11:28:05.255Z,8.40
2023-02-17T11:30:41.444Z,11.30
2023-02-17T11:33:23.578Z,10.30
2023-02-17T11:41:05.906Z,11.40
2023-02-17T11:43:40.544Z,12.00
2023-02-17T11:46:35.208Z,11.70
2023-02-17T11:49:44.330Z,12.70
2023-02-17T11:52:21.210Z,13.00
2023-02-17T11:55:17.977Z,11.60
2023-02-17T11:58:28.184Z,13.50
2023-02-17T12:01:19.252Z,17.70
2023-02-17T12:04:27.507Z,12.70
2023-02-17T12:07:17.385Z,14.30
2023-02-17T12:10:18.165Z,13.70
2023-02-17T12:13:19.056Z,13.60
2023-02-17T12:16:03.330Z,13.90
2023-02-17T12:19:16.765Z,12.00
2023-02-17T12:22:16.823Z,13.80
2023-02-17T12:25:10.710Z,12.60
2023-02-17T12:27:57.638Z,13.80
2023-02-17T12:30:44.058Z,9.90
2023-02-17T12:33:41.951Z,13.70
2023-02-17T12:36:21.592Z,12.20
2023-02-17T12:39:04.338Z,13.30
2023-02-17T12:41:42.703Z,13.40
2023-02-17T12:44:30.810Z,13.10
2023-02-17T12:47:14.358Z,12.80
2023-02-17T12:49:55.726Z,13.30
2023-02-17T12:52:32.802Z,13.00
2023-02-17T12:55:27.875Z,13.30
2023-02-17T12:58:24.225Z,13.60
2023-02-17T13:01:19.885Z,13.50
2023-02-17T13:03:53.734Z,15.50
2023-02-17T13:06:33.496Z,18.70
2023-02-17T13:09:23.503Z,15.10
2023-02-17T13:11:56.632Z,16.80
2023-02-17T13:14:41.007Z,15.50
2023-02-17T13:17:26.709Z,13.20
2023-02-17T13:20:30.562Z,12.70
2023-02-17T13:23:10.546Z,12.80
2023-02-17T13:25:44.215Z,12.30
2023-02-17T13:28:40.212Z,11.90
2023-02-17T13:31:14.767Z,11.00
2023-02-17T13:34:00.181Z,12.50
2023-02-17T13:36:35.474Z,11.30
2023-02-17T13:39:30.590Z,12.60
2023-02-17T13:42:04.673Z,12.60
2023-02-17T13:44:49.243Z,12.10
2023-02-17T13:47:38.317Z,9.20
2023-02-17T13:50:31.529Z,12.90
2023-02-17T13:53:22.788Z,12.00
2023-02-17T13:55:59.309Z,11.70
2023-02-17T13:58:37.697Z,7.20
2023-02-17T14:01:17.844Z,11.30
2023-02-17T14:03:55.052Z,11.60
2023-02-17T14:06:41.683Z,12.00
2023-02-17T14:09:31.206Z,12.00
2023-02-17T14:12:19.877Z,14.00
2023-02-17T14:14:53.030Z,12.60
2023-02-17T14:17:38.709Z,10.80
2023-02-17T14:20:29.279Z,11.00
2023-02-17T14:23:16.534Z,11.10
2023-02-17T14:25:52.159Z,11.00
2023-02-17T14:28:29.248Z,10.00
2023-02-17T14:31:13.353Z,12.00
2023-02-17T14:34:00.697Z,11.60
2023-02-17T14:36:40.189Z,13.20
2023-02-17T14:39:17.451Z,13.30
2023-02-17T14:41:50.664Z,13.40
2023-02-17T14:44:24.059Z,8.30
2023-02-17T14:46:57.037Z,12.70
2023-02-17T14:49:30.080Z,10.80
2023-02-17T14:52:03.808Z,12.50
2023-02-17T14:54:37.018Z,11.80
2023-02-17T14:57:14.333Z,11.90
2023-02-17T14:59:48.501Z,11.50
2023-02-17T15:02:23.132Z,11.90
2023-02-17T15:04:56.048Z,12.00
2023-02-17T15:07:29.438Z,11.80
2023-02-17T15:10:02.495Z,11.10
2023-02-17T15:12:35.654Z,12.20
2023-02-17T15:15:08.955Z,12.20
2023-02-17T15:17:42.148Z,13.00
2023-02-17T15:20:17.757Z,18.60
2023-02-17T15:22:53.510Z,15.00
2023-02-17T15:25:27.444Z,13.50
2023-02-17T15:28:00.633Z,13.00
2023-02-17T15:30:34.318Z,15.90
2023-02-17T15:33:11.997Z,14.50
2023-02-17T15:35:45.518Z,14.70
2023-02-17T15:38:18.688Z,12.90
2023-02-17T15:40:52.346Z,14.10
2023-02-17T15:43:29.726Z,12.80
2023-02-17T15:46:02.869Z,13.40
2023-02-17T15:48:35.849Z,15.70
2023-02-17T15:51:11.246Z,14.70
2023-02-17T15:53:45.056Z,16.30
2023-02-17T15:56:24.058Z,17.30
2023-02-17T15:58:58.184Z,17.40
2023-02-17T16:01:36.831Z,16.10
2023-02-17T16:04:12.711Z,19.00
2023-02-17T16:06:45.866Z,19.10
2023-02-17T16:09:20.629Z,19.60
2023-02-17T16:11:57.993Z,18.70
2023-02-17T16:14:41.357Z,25.90
2023-02-17T16:17:17.927Z,51.50
2023-02-17T16:19:51.728Z,47.10
2023-02-17T16:22:24.984Z,36.30
2023-02-17T16:24:58.010Z,25.80
2023-02-17T16:27:31.105Z,17.70
2023-02-17T16:30:04.388Z,25.00
2023-02-17T16:32:38.153Z,49.30
2023-02-17T16:35:16.220Z,46.40
2023-02-17T16:37:56.508Z,35.80
2023-02-17T16:40:31.551Z,26.00
2023-02-17T16:43:05.325Z,26.90
2023-02-17T16:45:38.455Z,26.00
2023-02-17T16:48:21.308Z,30.70
2023-02-17T16:50:54.350Z,26.30
2023-02-17T16:53:27.577Z,24.50
2023-02-17T16:56:01.024Z,26.60
2023-02-17T16:58:34.148Z,23.80
2023-02-17T17:01:14.032Z,25.20
2023-02-17T17:03:47.229Z,25.10
2023-02-17T17:06:26.353Z,20.80
2023-02-17T17:08:59.758Z,20.80
2023-02-17T17:11:33.002Z,25.20
2023-02-17T17:14:06.105Z,26.50
2023-02-17T17:16:40.721Z,31.20
2023-02-17T17:19:14.920Z,25.30
2023-02-17T17:21:49.581Z,20.80
2023-02-17T17:24:22.732Z,19.20
2023-02-17T17:26:56.453Z,20.10
2023-02-17T17:29:29.447Z,9.80
2023-02-17T17:32:03.789Z,12.10
2023-02-17T17:34:36.922Z,18.30
2023-02-17T17:37:12.369Z,20.30
2023-02-17T17:39:45.304Z,20.10
2023-02-17T17:42:18.678Z,21.00
2023-02-17T17:44:51.972Z,20.60
2023-02-17T17:47:30.134Z,21.30
2023-02-17T17:50:06.108Z,20.60
2023-02-17T17:52:39.432Z,21.90
2023-02-17T17:55:13.771Z,22.20
2023-02-17T17:57:48.798Z,21.90
2023-02-17T18:00:22.301Z,21.30
2023-02-17T18:02:55.561Z,22.80
2023-02-17T18:05:28.853Z,22.70
2023-02-17T18:08:02.388Z,24.70
2023-02-17T18:10:36.290Z,26.40
2023-02-17T18:13:12.353Z,27.00
2023-02-17T18:15:46.108Z,27.10
2023-02-17T18:18:20.274Z,28.80
2023-02-17T18:20:53.572Z,27.50
2023-02-17T18:23:26.758Z,28.60
2023-02-17T18:25:59.895Z,26.90
2023-02-17T18:28:32.727Z,27.90
2023-02-17T18:31:12.388Z,31.40
2023-02-17T18:33:46.913Z,27.50
2023-02-17T18:36:23.777Z,31.00
2023-02-17T18:38:57.282Z,31.80
2023-02-17T18:41:33.396Z,30.90
2023-02-17T18:44:07.180Z,23.10
2023-02-17T18:46:40.966Z,30.70
2023-02-17T18:49:14.338Z,32.60
2023-02-17T18:51:48.519Z,31.10
2023-02-17T18:54:22.178Z,31.80
2023-02-17T18:56:59.163Z,32.00
2023-02-17T18:59:33.917Z,28.50
2023-02-17T19:02:10.943Z,28.00
2023-02-17T19:04:46.601Z,27.40
2023-02-17T19:07:20.079Z,26.20
2023-02-17T19:09:55.239Z,25.30
2023-02-17T19:12:29.012Z,26.30
2023-02-17T19:15:04.437Z,25.60
2023-02-17T19:17:37.893Z,25.70
2023-02-17T19:20:11.829Z,25.60
2023-02-17T19:22:44.824Z,27.30
2023-02-17T19:25:24.921Z,27.10
2023-02-17T19:27:58.615Z,26.80
2023-02-17T19:30:32.603Z,26.70
2023-02-17T19:33:05.949Z,26.90
2023-02-17T19:35:43.458Z,26.00
2023-02-17T19:38:16.728Z,26.20
2023-02-17T19:40:50.018Z,27.40
2023-02-17T19:43:26.374Z,28.20
2023-02-17T19:45:59.639Z,29.50
2023-02-17T19:48:33.555Z,30.90
2023-02-17T19:51:09.964Z,30.10
2023-02-17T19:53:43.702Z,32.80
2023-02-17T19:56:19.657Z,31.40
2023-02-17T19:58:53.402Z,33.00
2023-02-17T20:01:31.004Z,31.50
2023-02-17T20:04:06.233Z,31.00
2023-02-17T20:06:44.958Z,31.40
2023-02-17T20:09:20.588Z,31.80
2023-02-17T20:11:54.095Z,30.90
2023-02-17T20:14:27.590Z,35.40
2023-02-17T20:17:01.411Z,32.20
2023-02-17T20:19:35.188Z,31.50
2023-02-17T20:22:09.874Z,28.90
2023-02-17T20:24:43.245Z,29.70
2023-02-17T20:27:16.463Z,29.70
2023-02-17T20:29:49.541Z,27.80
2023-02-17T20:32:22.882Z,26.50
2023-02-17T20:34:56.058Z,27.30
2023-02-17T20:37:28.947Z,28.70
2023-02-17T20:40:04.183Z,28.50
2023-02-17T20:42:37.273Z,23.50
2023-02-17T20:45:10.506Z,28.80
2023-02-17T20:47:43.449Z,29.40
2023-02-17T20:50:21.764Z,28.60
2023-02-17T20:52:54.936Z,27.80
2023-02-17T20:55:28.792Z,28.10
2023-02-17T20:58:02.181Z,30.10
2023-02-17T21:00:35.135Z,26.10
2023-02-17T21:03:08.967Z,27.90
2023-02-17T21:05:42.580Z,27.00
2023-02-17T21:08:16.014Z,28.90
2023-02-17T21:10:50.172Z,27.30
2023-02-17T21:13:23.560Z,28.30
2023-02-17T21:15:56.637Z,28.00
2023-02-17T21:18:29.719Z,27.20
2023-02-17T21:21:02.884Z,26.00
2023-02-17T21:23:36.516Z,27.00
2023-02-17T21:26:11.611Z,27.10
2023-02-17T21:28:45.607Z,27.00
2023-02-17T21:31:19.824Z,27.80
2023-02-17T21:33:53.124Z,26.60
2023-02-17T21:36:28.963Z,27.90
2023-02-17T21:39:04.771Z,29.00
2023-02-17T21:41:37.956Z,28.50
2023-02-17T21:44:31.962Z,28.20
2023-02-17T21:47:05.400Z,28.10
2023-02-17T21:49:39.044Z,28.80
2023-02-17T21:52:12.041Z,28.40
2023-02-17T21:54:45.452Z,30.00
2023-02-17T21:57:18.687Z,27.90
2023-02-17T21:59:52.109Z,28.10
2023-02-17T22:02:25.690Z,29.50
2023-02-17T22:04:59.126Z,28.10
2023-02-17T22:07:32.222Z,27.10
2023-02-17T22:10:08.105Z,29.00
2023-02-17T22:12:41.387Z,27.60
2023-02-17T22:15:18.124Z,28.60
2023-02-17T22:17:51.042Z,28.40
2023-02-17T22:20:25.058Z,27.30
2023-02-17T22:22:58.548Z,27.30
2023-02-17T22:25:32.282Z,27.10
2023-02-17T22:28:05.223Z,26.30
2023-02-17T22:30:38.687Z,27.20
2023-02-17T22:33:12.034Z,25.20
2023-02-17T22:35:45.034Z,27.00
2023-02-17T22:38:18.538Z,25.50
2023-02-17T22:40:51.706Z,25.20
2023-02-17T22:43:25.658Z,26.00
2023-02-17T22:46:02.176Z,24.90
2023-02-17T22:48:37.058Z,23.10
2023-02-17T22:51:15.626Z,26.10
2023-02-17T22:53:49.213Z,25.00
2023-02-17T22:56:23.341Z,25.80
2023-02-17T22:59:01.605Z,24.20
2023-02-17T23:01:36.945Z,26.30
2023-02-17T23:04:13.922Z,24.60
2023-02-17T23:06:47.252Z,25.80
2023-02-17T23:09:21.662Z,25.70
2023-02-17T23:11:58.322Z,26.10
2023-02-17T23:14:36.348Z,26.10
2023-02-17T23:17:13.470Z,25.70
2023-02-17T23:19:48.108Z,26.30
2023-02-17T23:22:21.613Z,20.00
2023-02-17T23:24:55.014Z,24.40
2023-02-17T23:27:28.596Z,17.30
2023-02-17T23:30:01.364Z,26.80
2023-02-17T23:32:35.678Z,23.80
2023-02-17T23:35:09.290Z,10.30
2023-02-17T23:37:42.675Z,25.90
2023-02-17T23:40:16.796Z,26.40
2023-02-17T23:42:49.855Z,26.40
2023-02-17T23:45:23.357Z,25.90
2023-02-17T23:47:56.925Z,26.70
2023-02-17T23:50:30.587Z,27.10
2023-02-17T23:53:04.209Z,25.50
2023-02-17T23:55:37.457Z,26.80
2023-02-17T23:58:11.184Z,26.60
